Time;durP1;ratioP1;P1;durP2;ratioP2;P2;SDS_P1;SDS_P2;PMS_P1;PMS_P2;Temp;Humidity;BMP_temperature;BMP_pressure;BME280_temperature;BME280_humidity;BME280_pressure;Samples;Min_cycle;Max_cycle;Signal;HPM_P1;HPM_P2
2023/02/28 00:02:46;;;;;;;1.35;0.63;;;18.40;57.90;;;;;;10496782;28;20508;-26
2023/02/28 00:07:49;;;;;;;3.30;0.90;;;18.20;58.00;;;;;;10489991;28;20044;-26
2023/02/28 00:12:52;;;;;;;3.72;1.20;;;18.20;58.00;;;;;;10488578;28;20041;-26
2023/02/28 00:17:56;;;;;;;3.10;2.05;;;18.30;57.90;;;;;;10500193;28;20041;-27
2023/02/28 00:22:58;;;;;;;2.15;1.20;;;18.30;57.90;;;;;;10491385;28;20062;-24
2023/02/28 00:28:00;;;;;;;1.73;0.88;;;18.10;58.10;;;;;;10490683;28;20079;-26
2023/02/28 00:33:03;;;;;;;3.13;0.90;;;18.20;57.90;;;;;;10501712;28;20496;-24
2023/02/28 00:38:05;;;;;;;2.42;1.27;;;18.10;57.90;;;;;;10490719;28;20536;-24
2023/02/28 00:43:07;;;;;;;1.58;0.90;;;18.10;57.90;;;;;;10496075;28;20072;-23
2023/02/28 00:48:10;;;;;;;2.90;0.85;;;18.10;57.90;;;;;;10488731;28;20595;-23
2023/02/28 00:53:12;;;;;;;1.48;1.00;;;18.10;57.90;;;;;;10493897;28;20036;-23
2023/02/28 00:58:14;;;;;;;2.03;0.90;;;18.00;57.70;;;;;;10490780;28;20068;-25
2023/02/28 01:03:18;;;;;;;1.60;0.88;;;18.00;57.90;;;;;;10489865;28;20075;-24
2023/02/28 01:08:20;;;;;;;1.80;0.60;;;18.00;57.80;;;;;;10494943;28;20052;-24
2023/02/28 01:13:23;;;;;;;1.57;0.53;;;18.00;57.90;;;;;;10489136;28;20441;-24
2023/02/28 01:18:26;;;;;;;1.83;1.05;;;18.00;57.70;;;;;;10489971;28;20481;-24
2023/02/28 01:23:28;;;;;;;1.95;0.90;;;17.90;57.80;;;;;;10490247;28;20052;-24
2023/02/28 01:28:30;;;;;;;1.02;0.60;;;17.90;57.70;;;;;;10488546;28;20053;-24
2023/02/28 01:33:33;;;;;;;2.50;0.90;;;17.90;57.50;;;;;;10480293;28;20133;-24
2023/02/28 01:38:36;;;;;;;2.13;0.68;;;17.90;57.60;;;;;;10487097;28;20048;-27
2023/02/28 01:43:54;;;;;;;1.23;0.80;;;17.90;57.80;;;;;;10487931;28;20610;-24
2023/02/28 01:49:03;;;;;;;1.52;0.80;;;17.80;57.60;;;;;;10484005;28;20127;-24
2023/02/28 01:54:13;;;;;;;2.88;0.70;;;17.80;58.30;;;;;;10487215;28;20559;-25
2023/02/28 01:59:22;;;;;;;0.90;0.73;;;17.80;57.80;;;;;;10492469;28;20072;-24
2023/02/28 02:04:33;;;;;;;1.10;0.60;;;17.80;57.60;;;;;;10481912;28;20059;-24
2023/02/28 02:09:35;;;;;;;1.38;0.80;;;17.70;57.70;;;;;;10480503;28;20135;-24
2023/02/28 02:14:50;;;;;;;1.17;0.60;;;17.70;57.90;;;;;;10487811;28;20135;-26
2023/02/28 02:20:27;;;;;;;1.10;0.50;;;17.70;57.80;;;;;;10486385;28;20613;-24
2023/02/28 02:25:34;;;;;;;1.05;0.70;;;17.70;57.60;;;;;;10479790;28;20072;-24
2023/02/28 02:30:59;;;;;;;0.70;0.50;;;17.70;57.80;;;;;;10489502;28;20508;-25
2023/02/28 02:36:07;;;;;;;1.55;0.68;;;17.70;57.80;;;;;;10477158;28;20086;-25
2023/02/28 02:41:16;;;;;;;0.70;0.50;;;17.60;57.60;;;;;;10487764;28;20043;-25
2023/02/28 02:46:21;;;;;;;1.30;0.65;;;17.60;57.70;;;;;;10486990;28;20135;-24
2023/02/28 02:51:25;;;;;;;2.90;0.80;;;17.60;57.60;;;;;;10485706;28;20040;-24
2023/02/28 02:56:30;;;;;;;1.45;0.70;;;17.60;57.50;;;;;;10488004;28;20114;-25
2023/02/28 03:01:34;;;;;;;1.08;0.52;;;17.60;57.40;;;;;;10490134;28;20078;-24
2023/02/28 03:06:37;;;;;;;0.57;0.38;;;17.50;58.30;;;;;;10482844;28;20564;-26
2023/02/28 03:11:40;;;;;;;1.05;0.73;;;17.50;57.50;;;;;;10484626;28;20131;-23
2023/02/28 03:17:00;;;;;;;0.47;0.30;;;17.50;57.30;;;;;;10485977;28;20445;-25
2023/02/28 03:22:24;;;;;;;0.88;0.65;;;17.60;57.60;;;;;;10476733;28;20052;-26
2023/02/28 03:27:30;;;;;;;1.83;0.70;;;17.50;57.60;;;;;;10490658;28;20094;-24
2023/02/28 03:32:38;;;;;;;0.82;0.50;;;17.50;57.60;;;;;;10496416;28;20451;-24
2023/02/28 03:37:44;;;;;;;1.45;0.85;;;17.50;57.60;;;;;;10493904;28;20048;-25
2023/02/28 03:42:49;;;;;;;1.05;0.65;;;17.50;57.70;;;;;;10496115;28;20127;-24
2023/02/28 03:47:54;;;;;;;1.50;0.50;;;17.50;57.40;;;;;;10493653;28;20135;-26
2023/02/28 03:53:04;;;;;;;1.20;0.80;;;17.40;57.70;;;;;;10496247;28;20044;-24
2023/02/28 03:58:13;;;;;;;1.70;0.70;;;17.40;57.80;;;;;;10494126;28;20106;-24
2023/02/28 04:03:15;;;;;;;0.93;0.60;;;17.40;57.80;;;;;;10498265;28;20053;-24
2023/02/28 04:08:19;;;;;;;1.33;0.60;;;17.40;57.60;;;;;;10489065;28;20036;-24
2023/02/28 04:13:21;;;;;;;1.45;0.82;;;17.30;57.80;;;;;;10493390;28;20506;-24
2023/02/28 04:18:22;;;;;;;0.70;0.40;;;17.40;57.40;;;;;;10493613;28;20129;-24
2023/02/28 04:23:26;;;;;;;1.10;0.50;;;17.40;57.70;;;;;;10504259;28;20064;-24
2023/02/28 04:28:28;;;;;;;0.63;0.50;;;17.30;57.60;;;;;;10494701;28;20051;-24
2023/02/28 04:33:31;;;;;;;1.23;0.60;;;17.40;57.40;;;;;;10475959;28;20044;-25
2023/02/28 04:38:35;;;;;;;0.93;0.50;;;17.40;57.60;;;;;;10490923;28;20491;-24
2023/02/28 04:43:37;;;;;;;0.80;0.57;;;17.30;57.60;;;;;;10494595;28;20044;-24
2023/02/28 04:48:40;;;;;;;1.50;0.70;;;17.30;57.80;;;;;;10489449;28;20542;-24
2023/02/28 04:53:44;;;;;;;1.10;0.40;;;17.20;57.90;;;;;;10487980;28;20483;-23
2023/02/28 04:58:46;;;;;;;1.30;0.73;;;17.40;57.50;;;;;;10489637;28;20400;-25
2023/02/28 05:03:48;;;;;;;2.25;0.50;;;17.70;57.00;;;;;;10489107;28;20086;-24
2023/02/28 05:08:52;;;;;;;2.90;0.73;;;17.80;56.80;;;;;;10488261;28;20064;-24
2023/02/28 05:13:55;;;;;;;2.05;0.50;;;17.90;56.50;;;;;;10487045;28;20123;-24
2023/02/28 05:18:57;;;;;;;0.30;0.30;;;18.00;56.40;;;;;;10479174;28;20465;-24
2023/02/28 05:24:02;;;;;;;0.88;0.43;;;18.10;56.40;;;;;;10488929;28;20184;-25
2023/02/28 05:29:05;;;;;;;4.30;0.57;;;18.20;56.40;;;;;;10481123;28;20061;-26
2023/02/28 05:34:07;;;;;;;1.30;0.60;;;18.30;56.30;;;;;;10490148;28;20074;-24
2023/02/28 05:39:12;;;;;;;2.15;0.63;;;18.30;56.30;;;;;;10481065;28;20064;-24
2023/02/28 05:44:14;;;;;;;0.98;0.40;;;18.40;56.40;;;;;;10487750;28;20047;-24
2023/02/28 05:49:16;;;;;;;1.40;0.60;;;18.40;56.50;;;;;;10488517;28;20523;-25
2023/02/28 05:54:19;;;;;;;0.65;0.30;;;18.40;56.60;;;;;;10484500;28;20098;-25
2023/02/28 05:59:20;;;;;;;2.40;0.50;;;18.40;56.80;;;;;;10489723;28;20032;-25
2023/02/28 06:04:22;;;;;;;0.68;0.47;;;18.30;57.00;;;;;;10483345;28;20388;-24
2023/02/28 06:09:26;;;;;;;1.38;0.50;;;18.30;57.00;;;;;;10486677;28;20067;-24
2023/02/28 06:14:28;;;;;;;1.45;0.52;;;18.30;57.40;;;;;;10480909;28;20044;-24
2023/02/28 06:19:30;;;;;;;3.08;0.60;;;18.30;57.40;;;;;;10483069;28;20433;-23
2023/02/28 06:24:33;;;;;;;2.55;0.52;;;18.20;57.50;;;;;;10482377;28;20076;-25
2023/02/28 06:29:35;;;;;;;4.75;0.80;;;18.20;57.50;;;;;;10486100;28;20048;-22
2023/02/28 06:34:37;;;;;;;;;;;18.20;57.60;;;;;;10477275;28;20047;-22
2023/02/28 06:39:40;;;;;;;3.97;0.50;;;18.20;57.70;;;;;;10479695;28;19931;-24
2023/02/28 06:44:43;;;;;;;4.03;1.08;;;18.20;57.70;;;;;;10483515;28;20041;-25
2023/02/28 06:49:45;;;;;;;;;;;18.20;57.60;;;;;;10482687;28;20728;-25
2023/02/28 06:54:59;;;;;;;1.00;0.57;;;18.20;57.60;;;;;;10491866;28;19928;-25
2023/02/28 07:00:05;;;;;;;1.10;0.60;;;18.20;57.60;;;;;;10482393;28;20689;-23
2023/02/28 07:14:08;;;;;;;1.13;0.50;;;18.30;57.10;;;;;;10532180;27;20118;-24
2023/02/28 07:19:10;;;;;;;1.08;0.47;;;18.20;57.70;;;;;;10517040;28;20396;-25
2023/02/28 07:24:15;;;;;;;;;;;18.20;57.70;;;;;;10519780;28;20135;-25
2023/02/28 07:29:18;;;;;;;2.08;0.40;;;18.30;57.60;;;;;;10518631;28;19920;-23
2023/02/28 07:34:20;;;;;;;0.85;0.50;;;18.30;57.60;;;;;;10520269;28;20532;-25
2023/02/28 07:39:23;;;;;;;2.30;0.50;;;18.30;57.80;;;;;;10526287;28;20051;-24
2023/02/28 07:44:26;;;;;;;2.58;0.50;;;18.30;57.80;;;;;;10528852;28;20127;-24
2023/02/28 07:49:28;;;;;;;0.95;0.40;;;18.30;57.80;;;;;;10524254;28;20488;-24
2023/02/28 07:54:30;;;;;;;0.57;0.40;;;18.20;58.00;;;;;;10526968;28;20113;-24
2023/02/28 07:59:33;;;;;;;1.25;0.50;;;18.20;58.20;;;;;;10523714;28;20473;-25
2023/02/28 08:04:35;;;;;;;1.13;0.60;;;18.10;58.50;;;;;;10518236;28;20547;-25
2023/02/28 08:09:37;;;;;;;0.28;0.28;;;18.20;58.30;;;;;;10525389;28;20153;-25
2023/02/28 08:14:40;;;;;;;1.58;0.60;;;18.10;58.60;;;;;;10518465;28;20128;-23
2023/02/28 08:19:42;;;;;;;0.82;0.43;;;18.10;58.70;;;;;;10525058;28;20087;-27
2023/02/28 08:24:44;;;;;;;1.35;0.60;;;18.00;58.90;;;;;;10498271;28;20044;-24
2023/02/28 08:29:48;;;;;;;0.93;0.50;;;18.00;59.10;;;;;;10493415;28;21357;-24
2023/02/28 08:34:50;;;;;;;1.02;0.50;;;17.80;59.30;;;;;;10503901;28;20094;-24
2023/02/28 08:39:52;;;;;;;1.90;0.80;;;17.80;59.70;;;;;;10491360;28;20560;-26
2023/02/28 08:44:55;;;;;;;1.15;0.50;;;17.80;59.70;;;;;;10493324;28;20436;-23
2023/02/28 08:49:57;;;;;;;0.55;0.40;;;17.80;59.60;;;;;;10495181;28;20152;-24
2023/02/28 08:54:59;;;;;;;2.45;0.65;;;17.70;59.70;;;;;;10497282;28;20032;-24
2023/02/28 09:00:04;;;;;;;3.72;0.65;;;17.70;59.60;;;;;;10492577;28;20059;-24
2023/02/28 09:05:06;;;;;;;1.23;0.30;;;17.70;59.70;;;;;;10493200;28;20040;-24
2023/02/28 09:10:09;;;;;;;1.02;0.40;;;17.60;59.70;;;;;;10497306;28;20137;-24
2023/02/28 09:15:13;;;;;;;3.75;1.40;;;17.60;59.90;;;;;;10497271;28;20044;-25
2023/02/28 09:20:15;;;;;;;2.00;0.90;;;17.50;60.10;;;;;;10489513;28;20071;-24
2023/02/28 09:25:17;;;;;;;0.52;0.45;;;17.60;59.80;;;;;;10502282;28;20161;-25
2023/02/28 09:30:21;;;;;;;1.95;0.30;;;17.60;59.80;;;;;;10489963;28;20127;-25
2023/02/28 09:35:24;;;;;;;1.00;0.40;;;17.60;59.50;;;;;;10492536;28;20380;-24
2023/02/28 09:40:27;;;;;;;0.57;0.50;;;17.60;59.60;;;;;;10491999;28;20041;-23
2023/02/28 09:45:32;;;;;;;;;;;17.50;59.40;;;;;;10497363;28;20037;-24
2023/02/28 09:50:39;;;;;;;2.15;0.77;;;17.50;59.30;;;;;;10497891;28;19924;-24
2023/02/28 09:55:44;;;;;;;0.90;0.50;;;17.60;59.30;;;;;;10489920;28;20074;-24
2023/02/28 10:00:55;;;;;;;3.35;0.50;;;17.60;59.10;;;;;;10492120;28;20040;-24
2023/02/28 10:06:04;;;;;;;1.77;0.60;;;17.60;59.20;;;;;;10487791;28;20068;-22
2023/02/28 10:11:08;;;;;;;4.45;1.67;;;17.50;59.20;;;;;;10492179;28;20075;-24
2023/02/28 10:16:17;;;;;;;5.50;2.35;;;17.50;59.20;;;;;;10483611;28;20035;-24
2023/02/28 10:21:24;;;;;;;5.18;1.60;;;17.40;59.20;;;;;;10487913;28;20139;-24
2023/02/28 10:26:29;;;;;;;3.17;1.40;;;17.50;59.10;;;;;;10490227;28;20431;-24
2023/02/28 10:31:33;;;;;;;1.95;1.15;;;17.40;59.20;;;;;;10484779;28;20050;-25
2023/02/28 10:36:35;;;;;;;2.58;1.80;;;17.40;59.20;;;;;;10489098;28;20122;-25
2023/02/28 10:41:44;;;;;;;5.28;2.58;;;17.50;59.10;;;;;;10501059;28;20068;-24
2023/02/28 10:46:48;;;;;;;3.65;1.65;;;17.40;59.10;;;;;;10488663;28;20045;-25
2023/02/28 10:51:53;;;;;;;4.35;1.95;;;17.50;58.80;;;;;;10488214;28;20098;-24
2023/02/28 10:57:20;;;;;;;3.85;1.95;;;17.50;58.80;;;;;;10488563;28;20041;-24
2023/02/28 11:02:35;;;;;;;4.07;2.63;;;17.40;58.90;;;;;;10494156;28;20131;-24
2023/02/28 11:07:38;;;;;;;5.65;3.30;;;17.40;59.00;;;;;;10487970;28;20401;-24
2023/02/28 11:12:42;;;;;;;4.82;2.83;;;17.40;59.40;;;;;;10490230;28;20068;-26
2023/02/28 11:17:55;;;;;;;4.10;2.35;;;17.40;59.10;;;;;;10504865;28;20048;-25
2023/02/28 11:22:59;;;;;;;5.57;2.50;;;17.40;59.00;;;;;;10489069;28;20060;-24
2023/02/28 11:28:06;;;;;;;2.75;1.75;;;17.40;58.80;;;;;;10489786;28;20076;-26
2023/02/28 11:33:29;;;;;;;4.22;2.03;;;17.50;58.60;;;;;;10493677;28;20138;-24
2023/02/28 11:38:34;;;;;;;2.47;1.30;;;17.50;58.50;;;;;;10490968;28;20044;-25
2023/02/28 11:43:49;;;;;;;5.80;2.65;;;17.50;58.40;;;;;;10485910;28;20151;-24
2023/02/28 11:48:59;;;;;;;5.90;2.60;;;17.50;58.50;;;;;;10495358;28;20036;-24
2023/02/28 11:54:18;;;;;;;3.20;1.35;;;17.50;58.60;;;;;;10490013;28;20099;-24
2023/02/28 11:59:43;;;;;;;5.28;2.17;;;17.70;57.70;;;;;;10492815;28;20079;-24
2023/02/28 12:05:00;;;;;;;2.42;1.00;;;17.70;57.60;;;;;;10499374;28;20157;-24
2023/02/28 12:10:08;;;;;;;3.55;1.58;;;17.80;57.40;;;;;;10496655;28;20067;-25
2023/02/28 12:15:28;;;;;;;6.22;2.05;;;17.80;57.40;;;;;;10480398;28;20563;-24
2023/02/28 12:20:37;;;;;;;7.40;2.92;;;17.70;57.60;;;;;;10494228;28;20123;-24
2023/02/28 12:25:51;;;;;;;7.70;3.25;;;17.60;57.90;;;;;;10492107;28;20415;-24
2023/02/28 12:31:00;;;;;;;5.30;3.13;;;17.50;58.20;;;;;;10500820;28;20044;-24
2023/02/28 12:36:09;;;;;;;5.55;2.45;;;17.60;57.90;;;;;;10493512;28;20056;-23
2023/02/28 12:41:15;;;;;;;2.40;1.30;;;17.30;59.00;;;;;;10499463;28;20402;-26
2023/02/28 12:46:20;;;;;;;3.70;0.95;;;17.30;58.70;;;;;;10495779;28;20071;-24
2023/02/28 12:51:25;;;;;;;1.70;0.70;;;17.50;57.80;;;;;;10494710;28;20080;-24
2023/02/28 12:56:37;;;;;;;2.42;0.90;;;17.60;57.50;;;;;;10492569;28;20044;-24
2023/02/28 13:02:16;;;;;;;4.85;1.80;;;17.50;57.80;;;;;;10495971;28;20771;-24
2023/02/28 13:07:41;;;;;;;7.57;2.83;;;17.50;58.00;;;;;;10486952;28;20064;-24
2023/02/28 13:12:50;;;;;;;4.72;2.13;;;17.40;58.20;;;;;;10494906;28;20138;-24
2023/02/28 13:17:54;;;;;;;4.93;2.55;;;17.40;58.10;;;;;;10489204;28;20117;-25
2023/02/28 13:22:57;;;;;;;1.45;1.00;;;17.60;57.60;;;;;;10491138;28;20149;-25
2023/02/28 13:28:03;;;;;;;4.90;2.22;;;17.60;57.50;;;;;;10493010;28;20045;-24
2023/02/28 13:33:29;;;;;;;2.83;1.58;;;17.70;57.00;;;;;;10495585;28;20075;-23
2023/02/28 13:38:40;;;;;;;17.27;6.45;;;17.70;57.10;;;;;;10496406;28;20045;-23
2023/02/28 13:44:02;;;;;;;5.03;1.90;;;17.70;57.10;;;;;;10487334;28;20044;-24
2023/02/28 13:49:20;;;;;;;4.60;1.93;;;17.60;57.40;;;;;;10490165;28;20079;-24
2023/02/28 13:54:40;;;;;;;4.07;1.15;;;17.90;56.40;;;;;;10477314;28;20743;-24
2023/02/28 13:59:51;;;;;;;3.63;1.35;;;18.20;55.70;;;;;;10491155;28;20127;-25
2023/02/28 14:05:02;;;;;;;3.97;1.20;;;18.60;54.90;;;;;;10493705;28;20512;-21
2023/02/28 14:10:08;;;;;;;2.10;0.73;;;18.70;54.40;;;;;;10487139;28;20059;-26
2023/02/28 14:15:31;;;;;;;2.42;0.70;;;19.00;54.30;;;;;;10487821;28;20135;-24
2023/02/28 14:20:34;;;;;;;3.38;0.80;;;19.10;54.10;;;;;;10498118;28;20036;-24
2023/02/28 14:25:44;;;;;;;1.60;0.80;;;19.30;53.80;;;;;;10487657;28;20090;-23
2023/02/28 14:31:07;;;;;;;1.00;0.45;;;19.40;53.60;;;;;;10483352;28;20066;-24
2023/02/28 14:36:12;;;;;;;;;;;19.60;53.60;;;;;;10491128;28;20110;-24
2023/02/28 14:41:22;;;;;;;1.63;0.80;;;19.60;53.40;;;;;;10493448;28;19931;-26
2023/02/28 14:46:27;;;;;;;3.53;0.75;;;19.70;53.20;;;;;;10487337;28;20048;-25
2023/02/28 14:51:30;;;;;;;1.50;0.82;;;19.90;53.20;;;;;;10487880;28;20044;-25
2023/02/28 14:56:36;;;;;;;2.25;0.88;;;19.90;53.00;;;;;;10493590;28;20036;-24
2023/02/28 15:01:38;;;;;;;0.82;0.50;;;19.90;53.10;;;;;;10485843;28;20461;-24
2023/02/28 15:06:41;;;;;;;1.25;0.70;;;20.10;53.00;;;;;;10490250;28;20072;-26
2023/02/28 15:11:48;;;;;;;2.38;0.88;;;20.10;52.90;;;;;;10493227;28;20084;-25
2023/02/28 15:16:56;;;;;;;3.88;1.00;;;20.20;52.70;;;;;;10486818;28;20037;-25
2023/02/28 15:22:02;;;;;;;0.73;0.63;;;20.20;53.20;;;;;;10483693;28;20052;-26
2023/02/28 15:27:08;;;;;;;1.20;0.60;;;20.30;52.90;;;;;;10491320;28;20531;-24
2023/02/28 15:32:25;;;;;;;2.83;1.27;;;20.40;52.80;;;;;;10490398;28;20072;-24
2023/02/28 15:37:39;;;;;;;6.25;1.08;;;20.40;52.50;;;;;;10481214;28;20052;-24
2023/02/28 15:42:44;;;;;;;1.02;0.65;;;20.40;53.10;;;;;;10486322;28;20123;-24
2023/02/28 15:47:47;;;;;;;2.05;0.85;;;20.60;52.70;;;;;;10498665;28;20037;-24
2023/02/28 15:52:49;;;;;;;8.27;1.10;;;20.50;52.90;;;;;;10496213;28;20505;-26
2023/02/28 15:57:58;;;;;;;3.20;0.60;;;20.60;52.50;;;;;;10498223;28;20071;-24
2023/02/28 16:03:00;;;;;;;2.58;0.70;;;20.60;52.50;;;;;;10499307;28;20044;-25
2023/02/28 16:08:13;;;;;;;1.40;0.63;;;20.70;52.20;;;;;;10494106;28;20106;-24
2023/02/28 16:13:16;;;;;;;0.85;0.60;;;20.90;51.60;;;;;;10490816;28;20067;-24
2023/02/28 16:18:18;;;;;;;1.50;0.60;;;21.00;51.40;;;;;;10492609;28;20055;-24
2023/02/28 16:23:20;;;;;;;0.63;0.40;;;21.10;51.00;;;;;;10498887;28;20072;-24
2023/02/28 16:28:29;;;;;;;0.68;0.55;;;21.20;50.80;;;;;;10492750;28;20067;-24
2023/02/28 16:33:32;;;;;;;0.52;0.35;;;21.30;50.40;;;;;;10487341;28;20044;-24
2023/02/28 16:38:34;;;;;;;0.80;0.50;;;21.40;50.20;;;;;;10494130;28;20041;-24
2023/02/28 16:43:39;;;;;;;2.15;0.60;;;21.50;50.00;;;;;;10484404;28;20109;-22
2023/02/28 16:48:41;;;;;;;1.63;0.50;;;21.60;49.80;;;;;;10496042;28;20055;-26
2023/02/28 16:53:43;;;;;;;;;;;21.60;49.60;;;;;;10494107;28;20144;-24
2023/02/28 16:58:47;;;;;;;0.63;0.40;;;21.50;49.60;;;;;;10490407;28;20004;-24
2023/02/28 17:03:49;;;;;;;4.75;0.85;;;21.60;49.60;;;;;;10492837;28;20076;-24
2023/02/28 17:08:51;;;;;;;;;;;21.60;49.60;;;;;;10492031;28;20072;-25
2023/02/28 17:13:55;;;;;;;1.20;0.55;;;21.50;51.10;;;;;;10489241;28;20002;-24
2023/02/28 17:18:59;;;;;;;1.08;0.60;;;21.50;51.00;;;;;;10491231;28;20537;-24
2023/02/28 17:24:01;;;;;;;0.93;0.70;;;21.40;50.70;;;;;;10494381;28;20578;-24
2023/02/28 17:29:11;;;;;;;1.23;0.80;;;21.40;51.30;;;;;;10489753;28;20463;-24
2023/02/28 17:34:17;;;;;;;1.90;0.82;;;21.40;51.70;;;;;;10481661;28;20097;-24
2023/02/28 17:39:23;;;;;;;1.83;1.10;;;21.30;51.60;;;;;;10489442;28;20139;-24
2023/02/28 17:44:27;;;;;;;2.78;1.27;;;21.20;51.80;;;;;;10487842;28;20078;-25
2023/02/28 17:49:28;;;;;;;2.20;1.52;;;21.20;51.60;;;;;;10489137;28;20040;-25
2023/02/28 17:54:31;;;;;;;1.58;1.05;;;21.10;51.90;;;;;;10485546;28;20106;-25
2023/02/28 17:59:34;;;;;;;3.92;1.17;;;21.10;51.40;;;;;;10488237;28;20049;-26
2023/02/28 18:04:36;;;;;;;9.35;1.30;;;21.10;51.30;;;;;;10493017;28;20040;-25
2023/02/28 18:09:38;;;;;;;3.10;0.75;;;21.00;51.40;;;;;;10482542;28;20063;-25
2023/02/28 18:14:42;;;;;;;4.05;0.80;;;20.90;51.90;;;;;;10484569;28;20049;-25
2023/02/28 18:19:44;;;;;;;4.03;0.80;;;20.80;52.40;;;;;;10484594;28;20041;-24
2023/02/28 18:24:46;;;;;;;4.90;1.30;;;20.80;53.30;;;;;;10491112;28;20374;-23
2023/02/28 18:29:51;;;;;;;3.00;1.30;;;20.70;53.10;;;;;;10485136;28;20068;-23
2023/02/28 18:34:53;;;;;;;4.65;2.00;;;20.50;53.20;;;;;;10488694;28;20052;-25
2023/02/28 18:39:55;;;;;;;5.78;1.83;;;20.40;53.50;;;;;;10480565;28;20083;-24
2023/02/28 18:44:58;;;;;;;4.20;2.38;;;20.30;53.60;;;;;;10484659;28;20036;-25
2023/02/28 18:50:00;;;;;;;5.85;2.80;;;20.20;53.70;;;;;;10481495;28;20120;-24
2023/02/28 18:55:02;;;;;;;4.45;1.40;;;20.10;53.80;;;;;;10487529;28;20080;-25
2023/02/28 19:00:06;;;;;;;4.03;1.00;;;20.10;53.70;;;;;;10487266;28;20672;-25
2023/02/28 19:05:11;;;;;;;1.23;0.90;;;20.10;53.70;;;;;;10489744;28;20040;-24
2023/02/28 19:10:13;;;;;;;3.53;1.10;;;20.00;53.60;;;;;;10486613;28;20125;-22
2023/02/28 19:15:16;;;;;;;3.58;1.13;;;20.00;53.70;;;;;;10483601;28;20068;-26
2023/02/28 19:20:18;;;;;;;8.40;1.30;;;19.90;53.80;;;;;;10482982;28;20056;-25
2023/02/28 19:25:20;;;;;;;3.83;1.08;;;19.90;53.90;;;;;;10487779;28;20047;-25
2023/02/28 19:30:24;;;;;;;6.55;1.10;;;20.20;53.70;;;;;;10483905;28;20472;-25
2023/02/28 19:35:27;;;;;;;4.80;2.22;;;20.20;53.60;;;;;;10489600;28;20048;-25
2023/02/28 19:40:28;;;;;;;;;;;20.30;53.80;;;;;;10489380;28;20036;-24
2023/02/28 19:45:32;;;;;;;5.38;1.20;;;20.30;53.90;;;;;;10485284;28;20019;-24
2023/02/28 19:50:36;;;;;;;5.35;1.20;;;20.30;53.90;;;;;;10487911;28;20133;-24
2023/02/28 19:55:38;;;;;;;5.13;1.20;;;20.20;54.10;;;;;;10483881;28;20044;-24
2023/02/28 20:00:42;;;;;;;;;;;20.20;54.40;;;;;;10484103;28;20048;-25
2023/02/28 20:05:44;;;;;;;5.15;1.40;;;20.20;54.40;;;;;;10486697;28;19961;-25
2023/02/28 20:10:45;;;;;;;3.45;1.55;;;20.10;54.50;;;;;;10481909;28;20536;-26
2023/02/28 20:15:49;;;;;;;5.85;0.85;;;20.10;54.50;;;;;;10484480;28;20152;-25
2023/02/28 20:20:51;;;;;;;5.85;1.25;;;20.10;54.50;;;;;;10492312;28;20049;-25
2023/02/28 20:25:53;;;;;;;14.00;1.77;;;20.00;54.50;;;;;;10490975;28;20119;-25
2023/02/28 20:30:57;;;;;;;6.80;1.10;;;20.00;54.50;;;;;;10491348;28;20040;-25
2023/02/28 20:35:59;;;;;;;5.28;1.70;;;19.90;54.50;;;;;;10487440;28;20097;-25
2023/02/28 20:41:01;;;;;;;;;;;19.90;54.30;;;;;;10495971;28;20127;-26
2023/02/28 20:46:05;;;;;;;6.15;1.98;;;19.90;54.40;;;;;;10492152;28;19947;-25
2023/02/28 20:51:07;;;;;;;10.93;1.73;;;19.80;55.00;;;;;;10493153;28;20040;-24
2023/02/28 20:56:12;;;;;;;;;;;19.80;54.40;;;;;;10500334;28;20156;-24
2023/02/28 21:01:18;;;;;;;9.07;1.80;;;19.80;54.40;;;;;;10489177;28;19920;-25
2023/02/28 21:06:21;;;;;;;7.00;1.30;;;19.70;54.40;;;;;;10494877;28;20244;-24
2023/02/28 21:11:25;;;;;;;4.30;1.27;;;19.70;54.40;;;;;;10488358;28;20067;-26
2023/02/28 21:16:29;;;;;;;5.68;1.35;;;19.60;54.60;;;;;;10485092;28;20751;-24
2023/02/28 21:21:32;;;;;;;3.63;1.23;;;19.60;54.60;;;;;;10493352;28;20101;-26
2023/02/28 21:26:34;;;;;;;7.32;1.60;;;19.60;54.70;;;;;;10493695;28;20507;-25
2023/02/28 21:31:38;;;;;;;6.30;1.88;;;19.60;54.70;;;;;;10493750;28;20071;-25
2023/02/28 21:36:44;;;;;;;4.07;1.30;;;19.50;54.80;;;;;;10489042;28;20082;-25
2023/02/28 21:41:47;;;;;;;2.55;1.35;;;19.40;54.80;;;;;;10487965;28;20058;-25
2023/02/28 21:46:53;;;;;;;5.05;1.83;;;19.40;55.00;;;;;;10496339;28;20067;-24
2023/02/28 21:51:55;;;;;;;3.42;1.23;;;19.30;55.10;;;;;;10489038;28;20381;-24
2023/02/28 21:56:58;;;;;;;7.22;0.93;;;19.30;55.30;;;;;;10486139;28;20129;-24
2023/02/28 22:02:04;;;;;;;5.97;1.30;;;19.20;55.50;;;;;;10493053;28;20040;-24
2023/02/28 22:07:06;;;;;;;2.80;1.30;;;19.10;55.70;;;;;;10488964;28;20076;-25
2023/02/28 22:12:07;;;;;;;3.17;1.60;;;19.00;55.80;;;;;;10494844;28;20044;-25
2023/02/28 22:17:11;;;;;;;2.95;1.50;;;19.00;55.80;;;;;;10493478;28;20110;-24
2023/02/28 22:22:13;;;;;;;2.63;1.83;;;18.90;55.80;;;;;;10495754;28;20060;-24
2023/02/28 22:27:14;;;;;;;4.82;1.10;;;18.80;56.10;;;;;;10496935;28;20139;-24
2023/02/28 22:32:18;;;;;;;4.38;1.33;;;18.70;56.10;;;;;;10491627;28;20131;-24
2023/02/28 22:37:19;;;;;;;5.80;1.40;;;18.60;56.20;;;;;;10498680;28;20127;-24
2023/02/28 22:42:21;;;;;;;3.08;1.10;;;18.60;56.30;;;;;;10491149;28;20044;-25
2023/02/28 22:47:25;;;;;;;4.07;1.25;;;18.50;56.30;;;;;;10468007;28;20040;-24
2023/02/28 22:52:27;;;;;;;2.85;1.13;;;18.40;55.90;;;;;;10489509;28;20059;-24
2023/02/28 22:57:29;;;;;;;;;;;18.30;56.50;;;;;;10496488;28;20040;-24
2023/02/28 23:02:32;;;;;;;4.45;1.08;;;18.30;56.20;;;;;;10490444;28;20719;-25
2023/02/28 23:07:34;;;;;;;6.18;1.63;;;18.20;56.80;;;;;;10488179;28;20080;-26
2023/02/28 23:12:36;;;;;;;1.80;1.23;;;18.10;56.80;;;;;;10487393;28;20048;-25
2023/02/28 23:17:39;;;;;;;2.53;1.30;;;18.10;56.80;;;;;;10496192;28;20130;-24
2023/02/28 23:22:49;;;;;;;2.00;1.20;;;18.00;56.70;;;;;;10495253;28;20156;-24
2023/02/28 23:27:51;;;;;;;2.65;1.13;;;18.00;57.20;;;;;;10481589;28;20090;-24
2023/02/28 23:32:54;;;;;;;2.30;1.40;;;18.00;56.50;;;;;;10489246;28;20044;-23
2023/02/28 23:37:57;;;;;;;3.30;2.10;;;18.00;57.20;;;;;;10487135;28;20119;-24
2023/02/28 23:42:59;;;;;;;5.45;1.77;;;17.90;56.80;;;;;;10485242;28;20052;-24
2023/02/28 23:48:02;;;;;;;4.03;1.30;;;17.90;57.80;;;;;;10483450;28;20053;-24
2023/02/28 23:53:04;;;;;;;1.90;1.10;;;17.90;57.20;;;;;;10486263;28;20091;-24
2023/02/28 23:58:06;;;;;;;3.10;1.17;;;17.80;57.30;;;;;;10500114;28;20040;-24
